Camp Washington, Ohio
Current Conditions -  °F | °C
As of 4:38 AM on Monday 24 Nov 2014 (Local Time) from KI69 Reporting Station
Overcast Overcast  
Wind Chill: 61°   Ceiling: 2000
Heat Index: 61°   Visibility: 10mi
Dew Point: 57°   Wind: 10mph
Humidity: 88%   Direction: 200°SSW
Pressure: 29.36"   Gusts: 20mph
Location:  39.1426°N, 84.5545°W
Report Text: KI69 240938Z AUTO 20009G17KT 10SM OVC020 16/14 A2936 RMK AO1
Loading
Personal Weather Stations






























Interactive Weather Map New forecast layout! Learn more

10-Day Weather Forecast

Advertisements
Track Severe Weather on mobile